createdAt,value
2018-09-25T00:02:12.190Z,101181.30
2018-09-25T00:04:45.538Z,101187.34
2018-09-25T00:07:18.927Z,101182.12
2018-09-25T00:09:52.315Z,101184.71
2018-09-25T00:12:25.618Z,101198.16
2018-09-25T00:14:59.017Z,101205.96
2018-09-25T00:17:32.449Z,101202.87
2018-09-25T00:20:05.701Z,101207.20
2018-09-25T00:22:39.220Z,101218.46
2018-09-25T00:25:12.709Z,101217.11
2018-09-25T00:27:46.033Z,101221.01
2018-09-25T00:30:19.265Z,101225.32
2018-09-25T00:32:52.579Z,101227.02
2018-09-25T00:35:25.953Z,101229.58
2018-09-25T00:37:59.365Z,101231.72
2018-09-25T00:40:32.685Z,101226.04
2018-09-25T00:43:06.032Z,101229.50
2018-09-25T00:45:39.443Z,101231.20
2018-09-25T00:48:12.771Z,101220.34
2018-09-25T00:50:46.156Z,101230.24
2018-09-25T00:53:19.394Z,101230.20
2018-09-25T00:55:52.880Z,101237.53
2018-09-25T00:58:26.277Z,101231.38
2018-09-25T01:00:59.710Z,101238.70
2018-09-25T01:03:33.040Z,101236.94
2018-09-25T01:06:06.437Z,101238.20
2018-09-25T01:08:39.732Z,101236.94
2018-09-25T01:11:13.129Z,101234.34
2018-09-25T01:13:46.556Z,101237.78
2018-09-25T01:16:20.033Z,101241.23
2018-09-25T01:18:53.436Z,101250.72
2018-09-25T01:21:26.743Z,101250.70
2018-09-25T01:24:00.096Z,101257.59
2018-09-25T01:26:33.471Z,101255.81
2018-09-25T01:29:06.851Z,101260.92
2018-09-25T01:31:40.094Z,101257.42
2018-09-25T01:34:13.499Z,101256.99
2018-09-25T01:36:46.889Z,101253.94
2018-09-25T01:39:20.441Z,101265.22
2018-09-25T01:41:53.637Z,101268.66
2018-09-25T01:44:27.007Z,101269.95
2018-09-25T01:47:00.297Z,101256.91
2018-09-25T01:49:33.786Z,101262.42
2018-09-25T01:52:07.175Z,101261.52
2018-09-25T01:54:40.601Z,101254.54
2018-09-25T01:57:14.082Z,101252.36
2018-09-25T01:59:47.485Z,101249.80
2018-09-25T02:02:20.765Z,101254.60
2018-09-25T02:04:54.181Z,101246.42
2018-09-25T02:07:27.510Z,101250.31
2018-09-25T02:10:00.810Z,101247.27
2018-09-25T02:12:34.073Z,101242.78
2018-09-25T02:15:08.109Z,101246.55
2018-09-25T02:17:41.469Z,101242.09
2018-09-25T02:20:15.005Z,101239.91
2018-09-25T02:22:48.477Z,101252.41
2018-09-25T02:25:21.961Z,101248.02
2018-09-25T02:27:55.489Z,101238.47
2018-09-25T02:30:28.847Z,101252.30
2018-09-25T02:33:02.245Z,101250.54
2018-09-25T02:35:35.501Z,101255.27
2018-09-25T02:38:08.874Z,101254.81
2018-09-25T02:40:42.116Z,101248.29
2018-09-25T02:43:15.425Z,101248.33
2018-09-25T02:45:48.827Z,101253.94
2018-09-25T02:48:22.181Z,101253.06
2018-09-25T02:50:55.585Z,101246.11
2018-09-25T02:53:28.861Z,101251.77
2018-09-25T02:56:02.234Z,101248.82
2018-09-25T02:58:35.561Z,101249.70
2018-09-25T03:01:08.843Z,101244.20
2018-09-25T03:03:42.165Z,101249.04
2018-09-25T03:06:15.525Z,101247.74
2018-09-25T03:08:48.754Z,101240.37
2018-09-25T03:11:22.200Z,101246.44
2018-09-25T03:13:55.641Z,101247.28
2018-09-25T03:16:29.110Z,101247.31
2018-09-25T03:19:02.573Z,101253.39
2018-09-25T03:21:35.843Z,101252.97
2018-09-25T03:24:09.379Z,101255.56
2018-09-25T03:26:42.634Z,101250.02
2018-09-25T03:29:15.930Z,101247.45
2018-09-25T03:31:49.437Z,101256.61
2018-09-25T03:34:22.790Z,101253.66
2018-09-25T03:36:56.169Z,101255.48
2018-09-25T03:39:29.587Z,101263.34
2018-09-25T03:42:02.947Z,101257.51
2018-09-25T03:44:36.287Z,101255.53
2018-09-25T03:47:09.793Z,101252.14
2018-09-25T03:49:43.292Z,101264.78
2018-09-25T03:52:16.693Z,101265.16
2018-09-25T03:54:50.078Z,101265.98
2018-09-25T03:57:23.429Z,101269.45
2018-09-25T03:59:56.850Z,101269.88
2018-09-25T04:02:30.287Z,101266.38
2018-09-25T04:05:03.654Z,101260.38
2018-09-25T04:07:36.994Z,101261.73
2018-09-25T04:10:10.352Z,101263.13
2018-09-25T04:12:43.754Z,101261.94
2018-09-25T04:15:17.162Z,101267.55
2018-09-25T04:17:50.410Z,101257.67
2018-09-25T04:20:23.843Z,101250.40
2018-09-25T04:22:57.166Z,101245.66
2018-09-25T04:25:30.650Z,101246.52
2018-09-25T04:28:04.045Z,101248.75
2018-09-25T04:30:37.396Z,101240.93
2018-09-25T04:33:10.755Z,101235.31
2018-09-25T04:35:44.154Z,101241.83
2018-09-25T04:38:17.682Z,101238.38
2018-09-25T04:40:51.134Z,101224.15
2018-09-25T04:43:24.546Z,101216.84
2018-09-25T04:45:57.933Z,101224.27
2018-09-25T04:48:31.528Z,101229.47
2018-09-25T04:51:04.820Z,101242.08
2018-09-25T04:53:38.169Z,101234.70
2018-09-25T04:56:11.516Z,101237.36
2018-09-25T04:58:45.026Z,101239.95
2018-09-25T05:01:18.277Z,101239.11
2018-09-25T05:03:51.565Z,101224.78
2018-09-25T05:06:24.886Z,101232.63
2018-09-25T05:08:58.360Z,101230.03
2018-09-25T05:11:31.841Z,101235.66
2018-09-25T05:14:05.240Z,101225.71
2018-09-25T05:16:39.028Z,101221.80
2018-09-25T05:19:12.303Z,101222.27
2018-09-25T05:21:45.637Z,101216.20
2018-09-25T05:24:19.042Z,101216.23
2018-09-25T05:26:52.528Z,101227.53
2018-09-25T05:29:25.801Z,101219.72
2018-09-25T05:31:59.294Z,101208.41
2018-09-25T05:34:32.709Z,101209.72
2018-09-25T05:37:05.922Z,101213.20
2018-09-25T05:39:39.254Z,101208.84
2018-09-25T05:42:12.731Z,101200.59
2018-09-25T05:44:46.031Z,101199.27
2018-09-25T05:47:19.389Z,101205.34
2018-09-25T05:49:52.769Z,101213.18
2018-09-25T05:52:26.069Z,101205.78
2018-09-25T05:54:59.488Z,101197.88
2018-09-25T05:57:32.873Z,101195.61
2018-09-25T06:00:06.273Z,101196.35
2018-09-25T06:02:39.671Z,101198.74
2018-09-25T06:05:13.226Z,101195.88
2018-09-25T06:07:46.571Z,101191.73
2018-09-25T06:10:19.993Z,101188.92
2018-09-25T06:12:53.474Z,101189.52
2018-09-25T06:15:26.848Z,101185.70
2018-09-25T06:18:00.345Z,101182.66
2018-09-25T06:20:33.645Z,101174.74
2018-09-25T06:23:07.058Z,101168.59
2018-09-25T06:25:40.426Z,101145.17
2018-09-25T06:28:13.831Z,101163.66
2018-09-25T06:30:47.244Z,101159.63
2018-09-25T06:33:20.690Z,101157.33
2018-09-25T06:35:54.094Z,101158.02
2018-09-25T06:38:27.470Z,101155.66
2018-09-25T06:41:01.040Z,101164.96
2018-09-25T06:43:34.494Z,101152.29
2018-09-25T06:46:07.890Z,101152.50
2018-09-25T06:48:41.257Z,101146.64
2018-09-25T06:51:14.662Z,101145.09
2018-09-25T06:53:48.058Z,101136.69
2018-09-25T06:56:21.493Z,101135.23
2018-09-25T06:58:54.835Z,101136.40
2018-09-25T07:01:28.267Z,101132.02
2018-09-25T07:04:01.638Z,101125.75
2018-09-25T07:06:35.029Z,101118.19
2018-09-25T07:09:08.557Z,101118.87
2018-09-25T07:11:41.867Z,101117.83
2018-09-25T07:14:15.106Z,101112.82
2018-09-25T07:16:48.529Z,101121.31
2018-09-25T07:19:21.923Z,101124.77
2018-09-25T07:21:55.357Z,101119.16
2018-09-25T07:24:28.700Z,101118.33
2018-09-25T07:27:02.014Z,101116.00
2018-09-25T07:29:35.438Z,101110.22
2018-09-25T07:32:08.897Z,101113.67
2018-09-25T07:34:42.254Z,101106.38
2018-09-25T07:37:15.578Z,101099.61
2018-09-25T07:39:49.035Z,101110.66
2018-09-25T07:42:22.425Z,101104.45
2018-09-25T07:44:55.806Z,101113.27
2018-09-25T07:47:29.069Z,101105.97
2018-09-25T07:50:02.506Z,101100.27
2018-09-25T07:52:35.706Z,101104.13
2018-09-25T07:55:08.959Z,101100.72
2018-09-25T07:57:42.309Z,101093.61
2018-09-25T08:00:15.893Z,101076.80
2018-09-25T08:02:49.223Z,101069.14
2018-09-25T08:05:22.706Z,101073.23
2018-09-25T08:07:56.055Z,101064.88
2018-09-25T08:10:29.603Z,101063.57
2018-09-25T08:13:03.061Z,101071.47
2018-09-25T08:15:36.591Z,101070.46
2018-09-25T08:18:10.024Z,101068.11
2018-09-25T08:20:43.573Z,101076.41
2018-09-25T08:23:16.947Z,101074.77
2018-09-25T08:25:50.210Z,101075.42
2018-09-25T08:28:23.639Z,101078.16
2018-09-25T08:30:57.129Z,101080.31
2018-09-25T08:33:30.532Z,101073.95
2018-09-25T08:36:03.901Z,101074.52
2018-09-25T08:38:37.209Z,101072.96
2018-09-25T08:41:11.696Z,101089.80
2018-09-25T08:43:45.077Z,101083.03
2018-09-25T08:46:18.398Z,101078.23
2018-09-25T08:48:51.767Z,101073.89
2018-09-25T08:51:32.079Z,101069.06
2018-09-25T08:54:05.502Z,101071.75
2018-09-25T08:56:38.939Z,101064.84
2018-09-25T08:59:12.359Z,101067.83
2018-09-25T09:01:45.887Z,101057.83
2018-09-25T09:04:19.161Z,101076.08
2018-09-25T09:06:52.622Z,101068.48
2018-09-25T09:09:25.917Z,101072.42
2018-09-25T09:11:59.300Z,101072.59
2018-09-25T09:14:32.597Z,101070.61
2018-09-25T09:17:06.186Z,101064.36
2018-09-25T09:19:39.559Z,101068.02
2018-09-25T09:22:12.855Z,101064.05
2018-09-25T09:24:46.366Z,101058.96
2018-09-25T09:27:19.683Z,101061.98
2018-09-25T09:29:53.045Z,101059.98
2018-09-25T09:32:26.607Z,101074.23
2018-09-25T09:35:00.054Z,101069.70
2018-09-25T09:37:33.478Z,101063.92
2018-09-25T09:40:06.913Z,101054.84
2018-09-25T09:42:40.338Z,101051.67
2018-09-25T09:45:13.592Z,101054.91
2018-09-25T09:47:47.029Z,101048.33
2018-09-25T09:50:20.554Z,101046.63
2018-09-25T09:52:53.981Z,101046.52
2018-09-25T09:55:27.302Z,101050.09
2018-09-25T09:58:00.677Z,101049.84
2018-09-25T10:00:34.065Z,101041.45
2018-09-25T10:03:07.631Z,101044.46
2018-09-25T10:05:41.129Z,101046.83
2018-09-25T10:08:14.342Z,101045.86
2018-09-25T10:10:47.823Z,101042.54
2018-09-25T10:13:21.194Z,101042.73
2018-09-25T10:15:54.544Z,101048.89
2018-09-25T10:18:27.762Z,101050.56
2018-09-25T10:21:01.176Z,101053.49
2018-09-25T10:23:34.670Z,101058.56
2018-09-25T10:26:08.078Z,101057.54
2018-09-25T10:28:41.519Z,101048.31
2018-09-25T10:31:14.881Z,101053.23
2018-09-25T10:33:48.124Z,101051.38
2018-09-25T10:36:21.560Z,101036.19
2018-09-25T10:38:54.976Z,101027.29
2018-09-25T10:41:28.201Z,101029.05
2018-09-25T10:44:01.563Z,101024.69
2018-09-25T10:46:34.934Z,101031.44
2018-09-25T10:49:08.410Z,101027.13
2018-09-25T10:51:41.818Z,101020.29
2018-09-25T10:54:15.256Z,101020.25
2018-09-25T10:56:48.662Z,101020.48
2018-09-25T10:59:21.994Z,101023.14
2018-09-25T11:01:55.306Z,101025.16
2018-09-25T11:04:28.782Z,101013.13
2018-09-25T11:07:02.262Z,101009.72
2018-09-25T11:09:35.637Z,101013.14
2018-09-25T11:12:08.897Z,101011.23
2018-09-25T11:14:42.378Z,101011.64
2018-09-25T11:17:15.605Z,101009.25
2018-09-25T11:19:49.099Z,101010.73
2018-09-25T11:22:22.510Z,101011.40
2018-09-25T11:24:55.948Z,101022.41
2018-09-25T11:27:29.299Z,101024.66
2018-09-25T11:30:02.721Z,101019.36
2018-09-25T11:32:36.110Z,101018.55
2018-09-25T11:35:09.625Z,101011.98
2018-09-25T11:37:42.985Z,100987.20
2018-09-25T11:40:16.462Z,100980.27
2018-09-25T11:42:49.879Z,100952.23
2018-09-25T11:45:23.266Z,100947.09
2018-09-25T11:47:56.593Z,100910.08
2018-09-25T11:50:29.889Z,100899.81
2018-09-25T11:53:03.254Z,100876.95
2018-09-25T11:55:36.618Z,100922.83
2018-09-25T11:58:10.158Z,100951.11
2018-09-25T12:00:43.574Z,100967.94
2018-09-25T12:03:16.866Z,100952.91
2018-09-25T12:05:50.222Z,100941.19
2018-09-25T12:08:23.487Z,100947.91
2018-09-25T12:10:56.750Z,100945.44
2018-09-25T12:13:30.234Z,100945.71
2018-09-25T12:16:03.582Z,100941.57
2018-09-25T12:18:36.930Z,100948.98
2018-09-25T12:21:10.334Z,100951.77
2018-09-25T12:23:43.705Z,100958.40
2018-09-25T12:26:17.046Z,100951.31
2018-09-25T12:28:50.416Z,100958.20
2018-09-25T12:31:23.722Z,100952.04
2018-09-25T12:33:57.030Z,100944.50
2018-09-25T12:36:30.546Z,100948.61
2018-09-25T12:39:03.876Z,100941.30
2018-09-25T12:41:37.324Z,100940.11
2018-09-25T12:44:10.806Z,100944.88
2018-09-25T12:46:44.325Z,100943.64
2018-09-25T12:49:17.557Z,100927.73
2018-09-25T12:51:50.915Z,100933.49
2018-09-25T12:54:24.304Z,100931.30
2018-09-25T12:56:57.686Z,100934.67
2018-09-25T12:59:31.209Z,100919.45
2018-09-25T13:02:04.470Z,100929.25
2018-09-25T13:04:37.919Z,100917.05
2018-09-25T13:07:11.421Z,100914.16
2018-09-25T13:09:44.818Z,100918.73
2018-09-25T13:12:18.101Z,100909.64
2018-09-25T13:14:51.345Z,100926.59
2018-09-25T13:17:24.792Z,100930.66
2018-09-25T13:19:58.153Z,100931.70
2018-09-25T13:22:31.446Z,100934.03
2018-09-25T13:25:04.865Z,100925.95
2018-09-25T13:27:38.172Z,100924.76
2018-09-25T13:30:11.546Z,100919.70
2018-09-25T13:32:45.002Z,100904.08
2018-09-25T13:35:18.329Z,100899.50
2018-09-25T13:37:51.746Z,100892.88
2018-09-25T13:40:25.162Z,100877.42
2018-09-25T13:42:58.413Z,100867.14
2018-09-25T13:45:31.735Z,100857.40
2018-09-25T13:48:05.262Z,100856.36
2018-09-25T13:50:38.649Z,100859.75
2018-09-25T13:53:12.285Z,100863.41
2018-09-25T13:55:45.690Z,100867.37
2018-09-25T13:58:19.206Z,100871.27
2018-09-25T14:00:52.617Z,100861.35
2018-09-25T14:03:26.076Z,100865.52
2018-09-25T14:05:59.366Z,100864.66
2018-09-25T14:08:32.809Z,100850.71
2018-09-25T14:11:06.345Z,100850.16
2018-09-25T14:13:39.793Z,100846.45
2018-09-25T14:16:13.049Z,100855.13
2018-09-25T14:18:46.427Z,100847.41
2018-09-25T14:21:19.963Z,100850.56
2018-09-25T14:23:53.457Z,100859.09
2018-09-25T14:26:26.688Z,100845.02
2018-09-25T14:29:00.279Z,100846.44
2018-09-25T14:31:33.785Z,100842.89
2018-09-25T14:34:07.123Z,100855.14
2018-09-25T14:36:40.390Z,100851.42
2018-09-25T14:39:14.128Z,100852.34
2018-09-25T14:41:47.502Z,100846.31
2018-09-25T14:44:20.771Z,100841.94
2018-09-25T14:46:54.197Z,100843.09
2018-09-25T14:49:27.566Z,100839.30
2018-09-25T14:52:01.026Z,100842.96
2018-09-25T14:54:34.466Z,100839.73
2018-09-25T14:57:07.752Z,100829.73
2018-09-25T14:59:41.173Z,100836.00
2018-09-25T15:02:14.553Z,100834.81
2018-09-25T15:04:48.020Z,100834.55
2018-09-25T15:07:21.370Z,100828.20
2018-09-25T15:09:54.737Z,100816.42
2018-09-25T15:12:28.090Z,100821.04
2018-09-25T15:15:01.445Z,100806.21
2018-09-25T15:17:34.808Z,100806.08
2018-09-25T15:20:08.236Z,100805.43
2018-09-25T15:22:41.514Z,100797.03
2018-09-25T15:25:15.073Z,100795.70
2018-09-25T15:27:48.590Z,100794.56
2018-09-25T15:30:21.966Z,100797.48
2018-09-25T15:32:55.421Z,100800.12
2018-09-25T15:35:28.870Z,100797.42
2018-09-25T15:38:02.158Z,100783.73
2018-09-25T15:40:35.584Z,100777.44
2018-09-25T15:43:08.865Z,100767.16
2018-09-25T15:45:42.230Z,100760.35
2018-09-25T15:48:15.760Z,100762.52
2018-09-25T15:50:49.106Z,100751.52
2018-09-25T15:53:22.302Z,100762.27
2018-09-25T15:55:55.669Z,100765.99
2018-09-25T15:58:29.017Z,100761.53
2018-09-25T16:01:02.379Z,100775.87
2018-09-25T16:03:35.802Z,100771.70
2018-09-25T16:06:09.238Z,100762.13
2018-09-25T16:08:42.774Z,100757.00
2018-09-25T16:11:16.423Z,100756.06
2018-09-25T16:13:49.965Z,100759.37
2018-09-25T16:16:23.377Z,100760.91
2018-09-25T16:18:56.903Z,100759.78
2018-09-25T16:21:30.357Z,100767.76
2018-09-25T16:24:03.934Z,100760.89
2018-09-25T16:26:37.289Z,100759.92
2018-09-25T16:29:10.831Z,100751.59
2018-09-25T16:31:44.196Z,100757.98
2018-09-25T16:34:17.565Z,100752.24
2018-09-25T16:36:50.853Z,100751.20
2018-09-25T16:39:24.193Z,100742.45
2018-09-25T16:41:57.506Z,100739.30
2018-09-25T16:44:30.869Z,100753.83
2018-09-25T16:47:04.237Z,100751.98
2018-09-25T16:49:37.690Z,100747.77
2018-09-25T16:52:10.945Z,100751.69
2018-09-25T16:54:44.298Z,100754.97
2018-09-25T16:57:17.678Z,100750.41
2018-09-25T16:59:50.918Z,100754.47
2018-09-25T17:02:24.366Z,100763.14
2018-09-25T17:04:57.850Z,100755.42
2018-09-25T17:07:31.350Z,100750.06
2018-09-25T17:10:04.733Z,100761.72
2018-09-25T17:12:38.117Z,100766.42
2018-09-25T17:15:11.805Z,100763.38
2018-09-25T17:17:45.209Z,100757.15
2018-09-25T17:20:18.574Z,100747.94
2018-09-25T17:22:52.024Z,100744.28
2018-09-25T17:25:25.418Z,100745.63
2018-09-25T17:27:58.801Z,100745.50
2018-09-25T17:30:32.334Z,100747.83
2018-09-25T17:33:05.837Z,100746.42
2018-09-25T17:35:39.257Z,100751.73
2018-09-25T17:38:12.615Z,100743.61
2018-09-25T17:40:45.938Z,100750.02
2018-09-25T17:43:19.449Z,100750.02
2018-09-25T17:45:54.186Z,100747.39
2018-09-25T17:48:27.663Z,100743.02
2018-09-25T17:51:01.789Z,100736.22
2018-09-25T17:53:35.089Z,100736.88
2018-09-25T17:56:08.462Z,100730.94
2018-09-25T17:58:41.755Z,100728.95
2018-09-25T18:01:15.082Z,100733.58
2018-09-25T18:03:48.729Z,100732.97
2018-09-25T18:06:22.119Z,100731.75
2018-09-25T18:08:55.526Z,100726.36
2018-09-25T18:11:28.870Z,100714.67
2018-09-25T18:14:02.186Z,100717.50
2018-09-25T18:16:35.714Z,100715.83
2018-09-25T18:19:09.120Z,100720.23
2018-09-25T18:21:42.731Z,100711.72
2018-09-25T18:24:16.131Z,100712.07
2018-09-25T18:26:49.757Z,100712.69
2018-09-25T18:29:23.114Z,100709.63
2018-09-25T18:31:56.397Z,100704.49
2018-09-25T18:34:29.925Z,100708.02
2018-09-25T18:37:03.354Z,100703.94
2018-09-25T18:39:36.632Z,100698.16
2018-09-25T18:42:10.101Z,100699.98
2018-09-25T18:44:43.509Z,100685.67
2018-09-25T18:47:16.906Z,100684.21
2018-09-25T18:49:50.411Z,100672.61
2018-09-25T18:52:23.960Z,100675.97
2018-09-25T18:54:57.400Z,100675.94
2018-09-25T18:57:30.877Z,100687.35
2018-09-25T19:00:04.215Z,100684.37
2018-09-25T19:02:37.554Z,100683.69
2018-09-25T19:05:11.117Z,100676.50
2018-09-25T19:07:44.506Z,100670.81
2018-09-25T19:10:17.893Z,100665.19
2018-09-25T19:12:51.205Z,100659.20
2018-09-25T19:15:24.565Z,100651.44
2018-09-25T19:17:57.989Z,100645.72
2018-09-25T19:20:31.319Z,100635.91
2018-09-25T19:23:04.795Z,100634.62
2018-09-25T19:25:38.130Z,100628.52
2018-09-25T19:28:12.361Z,100620.37
2018-09-25T19:30:45.891Z,100619.06
2018-09-25T19:33:19.229Z,100611.41
2018-09-25T19:35:52.576Z,100617.23
2018-09-25T19:38:25.970Z,100607.16
2018-09-25T19:40:59.417Z,100612.81
2018-09-25T19:43:32.693Z,100604.19
2018-09-25T19:46:06.188Z,100607.90
2018-09-25T19:48:39.758Z,100593.00
2018-09-25T19:51:13.130Z,100591.86
2018-09-25T19:53:46.363Z,100583.99
2018-09-25T19:56:19.816Z,100584.41
2018-09-25T19:58:53.209Z,100581.25
2018-09-25T20:01:26.546Z,100583.19
2018-09-25T20:03:59.882Z,100581.31
2018-09-25T20:06:33.278Z,100575.38
2018-09-25T20:09:06.685Z,100570.69
2018-09-25T20:11:40.094Z,100566.73
2018-09-25T20:14:13.474Z,100572.86
2018-09-25T20:16:46.911Z,100566.80
2018-09-25T20:19:20.497Z,100571.03
2018-09-25T20:21:54.056Z,100582.23
2018-09-25T20:24:27.610Z,100587.98
2018-09-25T20:27:00.993Z,100584.70
2018-09-25T20:29:34.553Z,100576.02
2018-09-25T20:32:07.965Z,100574.30
2018-09-25T20:34:41.303Z,100558.90
2018-09-25T20:37:14.574Z,100552.66
2018-09-25T20:39:47.978Z,100547.39
2018-09-25T20:42:21.510Z,100545.35
2018-09-25T20:44:54.742Z,100541.51
2018-09-25T20:47:28.090Z,100538.95
2018-09-25T20:50:01.541Z,100527.44
2018-09-25T20:52:34.919Z,100522.70
2018-09-25T20:55:08.293Z,100525.17
2018-09-25T20:57:41.742Z,100519.50
2018-09-25T21:00:15.077Z,100516.82
2018-09-25T21:02:48.445Z,100502.66
2018-09-25T21:05:21.761Z,100500.45
2018-09-25T21:07:55.013Z,100494.58
2018-09-25T21:10:28.482Z,100482.56
2018-09-25T21:13:01.734Z,100475.18
2018-09-25T21:15:35.288Z,100460.73
2018-09-25T21:18:08.724Z,100454.70
2018-09-25T21:20:42.120Z,100458.43
2018-09-25T21:23:15.478Z,100456.61
2018-09-25T21:25:48.862Z,100448.47
2018-09-25T21:28:22.220Z,100436.70
2018-09-25T21:30:55.688Z,100432.17
2018-09-25T21:33:29.100Z,100421.62
2018-09-25T21:36:02.552Z,100420.19
2018-09-25T21:38:35.734Z,100413.55
2018-09-25T21:41:09.206Z,100418.75
2018-09-25T21:43:42.711Z,100416.72
2018-09-25T21:46:16.205Z,100415.73
2018-09-25T21:48:49.635Z,100412.12
2018-09-25T21:51:23.127Z,100406.30
2018-09-25T21:53:56.282Z,100400.08
2018-09-25T21:56:29.661Z,100404.95
2018-09-25T21:59:03.077Z,100409.92
2018-09-25T22:04:18.322Z,100409.67
2018-09-25T22:09:38.271Z,100399.25
2018-09-25T22:12:14.229Z,100395.22
2018-09-25T22:14:51.291Z,100396.41
2018-09-25T22:17:28.333Z,100388.91
2018-09-25T22:20:05.364Z,100390.30
2018-09-25T22:22:40.787Z,100381.86
2018-09-25T22:25:14.696Z,100376.50
2018-09-25T22:27:50.400Z,100369.98
2018-09-25T22:30:26.407Z,100359.03
2018-09-25T22:33:00.413Z,100349.88
2018-09-25T22:35:35.552Z,100339.70
2018-09-25T22:38:10.997Z,100332.80
2018-09-25T22:40:45.931Z,100329.05
2018-09-25T22:43:20.100Z,100328.13
2018-09-25T22:45:55.380Z,100321.86
2018-09-25T22:48:31.441Z,100312.04
2018-09-25T22:51:05.195Z,100313.81
2018-09-25T22:53:41.405Z,100293.39
2018-09-25T22:56:17.059Z,100288.03
2018-09-25T22:58:56.360Z,100287.38
2018-09-25T23:01:31.090Z,100279.88
2018-09-25T23:04:14.033Z,100275.52
2018-09-25T23:06:49.365Z,100272.42
2018-09-25T23:09:23.690Z,100269.32
2018-09-25T23:12:04.511Z,100259.36
2018-09-25T23:14:46.057Z,100258.50
2018-09-25T23:17:22.259Z,100254.95
2018-09-25T23:19:57.193Z,100252.81
2018-09-25T23:22:30.933Z,100244.50
2018-09-25T23:25:04.658Z,100242.86
2018-09-25T23:27:38.031Z,100228.16
2018-09-25T23:30:11.560Z,100225.39
2018-09-25T23:32:44.996Z,100225.98
2018-09-25T23:35:18.321Z,100215.98
2018-09-25T23:37:51.648Z,100209.44
2018-09-25T23:40:31.078Z,100203.30
2018-09-25T23:43:06.410Z,100192.03
2018-09-25T23:45:39.716Z,100189.98
2018-09-25T23:48:13.295Z,100180.84
2018-09-25T23:50:48.213Z,100178.66
2018-09-25T23:53:33.724Z,100166.52
2018-09-25T23:56:07.100Z,100154.02
2018-09-25T23:59:38.304Z,100147.75
